Time;durP1;ratioP1;P1;durP2;ratioP2;P2;SDS_P1;SDS_P2;PMS_P1;PMS_P2;Temp;Humidity;BMP_temperature;BMP_pressure;BME280_temperature;BME280_humidity;BME280_pressure;Samples;Min_cycle;Max_cycle;Signal;HPM_P1;HPM_P2
2021/11/20 00:00:55;;;;;;;;;;;;;;;21.41;50.20;102693.78;7284816;19;153897;-49
2021/11/20 00:03:22;;;;;;;;;;;;;;;21.41;50.15;102688.16;7283317;19;151614;-50
2021/11/20 00:05:51;;;;;;;;;;;;;;;21.39;50.45;102688.47;7292433;19;151686;-49
2021/11/20 00:08:18;;;;;;;;;;;;;;;21.39;50.07;102694.09;7285028;19;151991;-49
2021/11/20 00:10:46;;;;;;;;;;;;;;;21.39;50.13;102684.78;7286590;19;152747;-49
2021/11/20 00:13:13;;;;;;;;;;;;;;;21.37;49.93;102684.19;7283254;19;154181;-48
2021/11/20 00:15:43;;;;;;;;;;;;;;;21.36;50.11;102676.88;7286469;19;151931;-50
2021/11/20 00:18:11;;;;;;;;;;;;;;;21.32;50.43;102682.22;7283195;19;153125;-50
2021/11/20 00:20:45;;;;;;;;;;;;;;;21.34;50.62;102677.16;7282327;19;154001;-49
2021/11/20 00:23:13;;;;;;;;;;;;;;;21.36;50.34;102676.88;7285523;19;152520;-48
2021/11/20 00:25:47;;;;;;;;;;;;;;;21.34;50.39;102663.13;7285480;19;153296;-49
2021/11/20 00:28:20;;;;;;;;;;;;;;;21.34;50.48;102665.06;7289145;19;153974;-48
2021/11/20 00:30:55;;;;;;;;;;;;;;;21.32;50.63;102664.47;7285114;19;153325;-49
2021/11/20 00:33:24;;;;;;;;;;;;;;;21.30;50.50;102662.78;7283488;19;153224;-49
2021/11/20 00:35:53;;;;;;;;;;;;;;;21.28;50.67;102662.22;7285676;19;151548;-49
2021/11/20 00:38:20;;;;;;;;;;;;;;;21.27;50.40;102660.53;7283170;19;152659;-50
2021/11/20 00:40:50;;;;;;;;;;;;;;;21.27;50.20;102652.09;7281684;19;153082;-49
2021/11/20 00:43:18;;;;;;;;;;;;;;;21.27;50.30;102649.28;7284323;19;152432;-49
2021/11/20 00:45:45;;;;;;;;;;;;;;;21.24;50.70;102660.22;7286361;19;153033;-49
2021/11/20 00:48:12;;;;;;;;;;;;;;;21.23;50.47;102641.66;7282045;19;154004;-48
2021/11/20 00:50:41;;;;;;;;;;;;;;;21.24;50.34;102654.63;7292494;19;151917;-49
2021/11/20 00:53:08;;;;;;;;;;;;;;;21.24;50.35;102646.19;7282963;19;154245;-49
2021/11/20 00:55:35;;;;;;;;;;;;;;;21.20;50.80;102645.88;7284058;19;151588;-49
2021/11/20 00:58:03;;;;;;;;;;;;;;;21.22;50.46;102637.16;7282542;19;152532;-49
2021/11/20 01:00:35;;;;;;;;;;;;;;;21.21;50.51;102636.31;7283395;19;153618;-49
2021/11/20 01:03:03;;;;;;;;;;;;;;;21.19;50.69;102630.13;7281097;19;152187;-49
2021/11/20 01:05:31;;;;;;;;;;;;;;;21.16;50.80;102627.03;7284589;19;152692;-49
2021/11/20 01:07:59;;;;;;;;;;;;;;;21.19;50.68;102620.84;7282374;19;151983;-49
2021/11/20 01:10:29;;;;;;;;;;;;;;;21.18;50.71;102619.16;7292335;19;151961;-49
2021/11/20 01:12:55;;;;;;;;;;;;;;;21.12;50.47;102629.47;7281258;19;153987;-48
2021/11/20 01:15:25;;;;;;;;;;;;;;;21.14;50.61;102627.28;7283881;19;151779;-48
2021/11/20 01:17:52;;;;;;;;;;;;;;;21.18;50.73;102628.44;7284665;19;152507;-52
2021/11/20 01:20:19;;;;;;;;;;;;;;;21.12;51.18;102631.47;7285559;19;154199;-50
2021/11/20 01:22:46;;;;;;;;;;;;;;;21.15;50.71;102625.31;7285871;19;151559;-49
2021/11/20 01:25:13;;;;;;;;;;;;;;;21.15;51.02;102622.50;7283844;19;152077;-49
2021/11/20 01:27:40;;;;;;;;;;;;;;;21.14;51.28;102621.66;7284458;19;153296;-50
2021/11/20 01:30:07;;;;;;;;;;;;;;;21.14;51.19;102620.81;7286335;19;151533;-49
2021/11/20 01:32:34;;;;;;;;;;;;;;;21.13;51.62;102619.97;7292124;19;153565;-49
2021/11/20 01:35:01;;;;;;;;;;;;;;;21.13;51.37;102619.97;7286039;19;151560;-49
2021/11/20 01:37:27;;;;;;;;;;;;;;;21.12;51.42;102618.22;7284854;19;154150;-49
2021/11/20 01:39:54;;;;;;;;;;;;;;;21.11;51.49;102612.91;7284219;19;153193;-50
2021/11/20 01:42:29;;;;;;;;;;;;;;;21.11;51.93;102615.72;7285435;19;151818;-49
2021/11/20 01:44:59;;;;;;;;;;;;;;;21.08;51.59;102617.09;7285708;19;153292;-49
2021/11/20 01:47:30;;;;;;;;;;;;;;;21.08;51.77;102607.78;7282328;19;153279;-49
2021/11/20 01:50:00;;;;;;;;;;;;;;;21.07;52.12;102611.75;7285542;19;151784;-49
2021/11/20 01:52:42;;;;;;;;;;;;;;;21.04;51.71;102612.28;7285817;19;152617;-49
2021/11/20 01:55:09;;;;;;;;;;;;;;;21.02;51.92;102611.72;7292077;19;153275;-49
2021/11/20 01:57:46;;;;;;;;;;;;;;;21.03;52.02;102613.41;7284839;19;152618;-49
2021/11/20 02:00:17;;;;;;;;;;;;;;;20.99;52.12;102603.81;7284414;19;153349;-49
2021/11/20 02:02:48;;;;;;;;;;;;;;;20.96;52.17;102604.34;7281302;19;151946;-49
2021/11/20 02:05:20;;;;;;;;;;;;;;;20.98;51.79;102607.75;7284971;19;152594;-49
2021/11/20 02:08:01;;;;;;;;;;;;;;;20.94;51.85;102609.41;7283440;19;153932;-49
2021/11/20 02:10:36;;;;;;;;;;;;;;;20.92;52.39;102609.69;7284672;19;151910;-48
2021/11/20 02:13:11;;;;;;;;;;;;;;;20.87;52.49;102606.84;7283924;19;152570;-48
2021/11/20 02:15:40;;;;;;;;;;;;;;;20.91;52.21;102607.13;7283329;19;153676;-48
2021/11/20 02:18:08;;;;;;;;;;;;;;;20.87;52.68;102604.03;7290588;19;151554;-49
2021/11/20 02:20:55;;;;;;;;;;;;;;;20.87;52.89;102601.22;7284112;19;153300;-49
2021/11/20 02:23:21;;;;;;;;;;;;;;;20.83;52.98;102602.88;7282314;19;152075;-49
2021/11/20 02:25:49;;;;;;;;;;;;;;;20.84;52.66;102597.00;7285425;19;152644;-49
2021/11/20 02:28:16;;;;;;;;;;;;;;;20.80;52.85;102592.19;7289457;19;154002;-48
2021/11/20 02:30:46;;;;;;;;;;;;;;;20.77;53.11;102587.94;7291395;19;152022;-48
2021/11/20 02:33:22;;;;;;;;;;;;;;;20.81;52.90;102586.28;7290594;19;152493;-49
2021/11/20 02:35:51;;;;;;;;;;;;;;;20.78;52.96;102589.63;7290574;19;153335;-49
2021/11/20 02:38:23;;;;;;;;;;;;;;;20.76;53.11;102586.25;7289627;19;152110;-50
2021/11/20 02:40:50;;;;;;;;;;;;;;;20.75;53.26;102584.56;7298148;19;152910;-48
2021/11/20 02:43:17;;;;;;;;;;;;;;;20.74;53.42;102582.88;7290374;19;151634;-48
2021/11/20 02:45:45;;;;;;;;;;;;;;;20.73;53.25;102583.97;7291224;19;152522;-49
2021/11/20 02:48:12;;;;;;;;;;;;;;;20.67;53.28;102582.25;7288377;19;152737;-49
2021/11/20 02:50:40;;;;;;;;;;;;;;;20.67;53.53;102579.44;7288410;19;151696;-48
2021/11/20 02:53:09;;;;;;;;;;;;;;;20.63;53.55;102572.66;7289516;19;152029;-48
2021/11/20 02:55:40;;;;;;;;;;;;;;;20.58;53.98;102567.00;7289057;19;153944;-49
2021/11/20 02:58:07;;;;;;;;;;;;;;;20.58;54.06;102569.81;7289527;19;151699;-49
2021/11/20 03:00:34;;;;;;;;;;;;;;;20.57;53.77;102562.53;7290190;19;153389;-49
2021/11/20 03:03:00;;;;;;;;;;;;;;;20.57;53.77;102564.50;7292908;19;155034;-49
2021/11/20 03:05:27;;;;;;;;;;;;;;;20.55;53.95;102570.38;7290342;19;152658;-49
2021/11/20 03:07:54;;;;;;;;;;;;;;;20.55;54.36;102555.47;7287369;19;153853;-49
2021/11/20 03:10:21;;;;;;;;;;;;;;;20.53;53.97;102555.78;7291614;19;152125;-49
2021/11/20 03:12:48;;;;;;;;;;;;;;;20.51;54.22;102560.78;7289437;19;153347;-49
2021/11/20 03:15:14;;;;;;;;;;;;;;;20.48;54.56;102555.72;7288300;19;153946;-48
2021/11/20 03:17:41;;;;;;;;;;;;;;;20.50;54.41;102552.63;7288944;19;151984;-49
2021/11/20 03:20:09;;;;;;;;;;;;;;;20.50;54.35;102555.44;7287077;19;153415;-49
2021/11/20 03:22:39;;;;;;;;;;;;;;;20.46;54.81;102543.91;7295854;19;153260;-49
2021/11/20 03:25:07;;;;;;;;;;;;;;;20.45;54.54;102547.81;7289765;19;152496;-49
2021/11/20 03:27:35;;;;;;;;;;;;;;;20.45;54.93;102552.59;7286901;19;152351;-49
2021/11/20 03:30:05;;;;;;;;;;;;;;;20.42;55.06;102549.22;7289614;19;151825;-49
2021/11/20 03:32:32;;;;;;;;;;;;;;;20.41;55.00;102546.66;7288802;19;153342;-49
2021/11/20 03:34:59;;;;;;;;;;;;;;;20.45;54.51;102535.75;7287779;19;151939;-48
2021/11/20 03:37:26;;;;;;;;;;;;;;;20.39;55.24;102540.50;7286354;19;151641;-49
2021/11/20 03:39:53;;;;;;;;;;;;;;;20.39;54.73;102537.69;7287061;19;153375;-49
2021/11/20 03:42:20;;;;;;;;;;;;;;;20.38;54.98;102531.22;7287293;19;153340;-49
2021/11/20 03:44:47;;;;;;;;;;;;;;;20.35;55.08;102528.94;7296418;19;151913;-48
2021/11/20 03:47:14;;;;;;;;;;;;;;;20.35;55.12;102533.72;7283891;19;153877;-49
2021/11/20 03:49:42;;;;;;;;;;;;;;;20.32;55.23;102529.47;7288711;19;151770;-49
2021/11/20 03:52:10;;;;;;;;;;;;;;;20.32;55.61;102526.66;7287924;19;153429;-49
2021/11/20 03:54:36;;;;;;;;;;;;;;;20.30;55.33;102520.50;7287568;19;154190;-49
2021/11/20 03:57:04;;;;;;;;;;;;;;;20.30;55.55;102528.91;7288752;19;151789;-50
2021/11/20 03:59:31;;;;;;;;;;;;;;;20.30;55.14;102519.66;7286650;19;153150;-48
2021/11/20 04:01:59;;;;;;;;;;;;;;;20.28;55.06;102519.88;7285338;19;153142;-49
2021/11/20 04:04:27;;;;;;;;;;;;;;;20.27;55.62;102531.34;7286714;19;152004;-49
2021/11/20 04:06:54;;;;;;;;;;;;;;;20.24;54.96;102518.72;7294587;19;153335;-48
2021/11/20 04:09:22;;;;;;;;;;;;;;;20.25;55.29;102522.38;7287851;19;151540;-49
2021/11/20 04:11:49;;;;;;;;;;;;;;;20.24;55.28;102503.84;7285793;19;153319;-49
2021/11/20 04:14:18;;;;;;;;;;;;;;;20.29;55.29;102504.72;7284327;19;153700;-49
2021/11/20 04:16:45;;;;;;;;;;;;;;;20.26;55.12;102508.06;7285213;19;151717;-49
2021/11/20 04:19:12;;;;;;;;;;;;;;;20.23;55.07;102513.38;7284964;19;153761;-49
2021/11/20 04:21:39;;;;;;;;;;;;;;;20.23;55.11;102507.75;7286250;19;153259;-49
2021/11/20 04:24:07;;;;;;;;;;;;;;;20.24;54.98;102503.84;7286666;19;152057;-49
2021/11/20 04:26:34;;;;;;;;;;;;;;;20.22;55.36;102517.28;7286735;19;153252;-49
2021/11/20 04:29:00;;;;;;;;;;;;;;;20.23;55.14;102496.53;7292618;19;153724;-49
2021/11/20 04:31:27;;;;;;;;;;;;;;;20.22;55.36;102503.25;7286817;19;151826;-48
2021/11/20 04:33:55;;;;;;;;;;;;;;;20.23;55.08;102507.75;7283911;19;154017;-49
2021/11/20 04:36:23;;;;;;;;;;;;;;;20.20;55.06;102499.88;7286434;19;152055;-48
2021/11/20 04:38:50;;;;;;;;;;;;;;;20.21;55.42;102498.78;7286138;19;152953;-50
2021/11/20 04:41:17;;;;;;;;;;;;;;;20.21;55.08;102495.97;7285130;19;153283;-49
2021/11/20 04:43:44;;;;;;;;;;;;;;;20.18;55.67;102499.28;7285920;19;151915;-49
2021/11/20 04:46:13;;;;;;;;;;;;;;;20.18;55.50;102499.28;7284653;19;153356;-49
2021/11/20 04:48:40;;;;;;;;;;;;;;;20.20;55.50;102494.28;7283870;19;153472;-50
2021/11/20 04:51:07;;;;;;;;;;;;;;;20.19;55.27;102498.19;7294251;19;151912;-49
2021/11/20 04:53:35;;;;;;;;;;;;;;;20.16;55.85;102502.38;7284731;19;153922;-50
2021/11/20 04:56:07;;;;;;;;;;;;;;;20.16;55.38;102502.38;7284766;19;151941;-48
2021/11/20 04:58:34;;;;;;;;;;;;;;;20.15;55.53;102500.69;7285233;19;152520;-49
2021/11/20 05:01:01;;;;;;;;;;;;;;;20.15;55.67;102499.84;7282465;19;153636;-49
2021/11/20 05:03:29;;;;;;;;;;;;;;;20.15;55.49;102494.22;7285681;19;152163;-50
2021/11/20 05:05:57;;;;;;;;;;;;;;;20.16;55.62;102490.31;7285980;19;153108;-49
2021/11/20 05:08:24;;;;;;;;;;;;;;;20.12;55.35;102487.19;7283975;19;154195;-50
2021/11/20 05:10:52;;;;;;;;;;;;;;;20.12;55.58;102491.97;7286327;19;151822;-50
2021/11/20 05:13:20;;;;;;;;;;;;;;;20.10;55.97;102486.59;7290255;19;152616;-50
2021/11/20 05:15:48;;;;;;;;;;;;;;;20.11;55.73;102481.84;7286427;19;151998;-49
2021/11/20 05:18:15;;;;;;;;;;;;;;;20.09;55.72;102481.25;7285290;19;152833;-49
2021/11/20 05:20:42;;;;;;;;;;;;;;;20.06;55.94;102481.81;7280713;19;153289;-50
2021/11/20 05:23:09;;;;;;;;;;;;;;;20.07;56.22;102480.69;7284702;19;152281;-49
2021/11/20 05:25:36;;;;;;;;;;;;;;;20.11;56.18;102471.47;7285645;19;153174;-48
2021/11/20 05:28:03;;;;;;;;;;;;;;;20.09;56.00;102475.66;7283766;19;154286;-50
2021/11/20 05:30:34;;;;;;;;;;;;;;;20.06;55.67;102474.22;7285706;19;151854;-50
2021/11/20 05:33:02;;;;;;;;;;;;;;;20.07;56.05;102473.13;7291261;19;153090;-50
2021/11/20 05:35:30;;;;;;;;;;;;;;;20.09;56.01;102470.03;7285428;19;151919;-49
2021/11/20 05:37:57;;;;;;;;;;;;;;;20.05;55.99;102475.34;7284707;19;153114;-50
2021/11/20 05:40:25;;;;;;;;;;;;;;;20.05;56.25;102461.31;7281948;19;153758;-49
2021/11/20 05:42:54;;;;;;;;;;;;;;;20.04;55.85;102462.41;7284416;19;152138;-49
2021/11/20 05:45:22;;;;;;;;;;;;;;;20.05;55.87;102461.31;7284883;19;153467;-49
2021/11/20 05:47:49;;;;;;;;;;;;;;;20.04;56.21;102461.56;7280192;19;152760;-49
2021/11/20 05:50:19;;;;;;;;;;;;;;;20.06;55.86;102454.59;7284011;19;151687;-48
2021/11/20 05:52:47;;;;;;;;;;;;;;;20.04;56.34;102455.97;7281466;19;152632;-50
2021/11/20 05:55:15;;;;;;;;;;;;;;;20.02;55.81;102452.59;7292168;19;153598;-50
2021/11/20 05:57:42;;;;;;;;;;;;;;;20.01;55.96;102453.69;7283861;19;152921;-49
2021/11/20 06:00:11;;;;;;;;;;;;;;;20.02;55.78;102452.59;7281189;19;153819;-49
2021/11/20 06:02:38;;;;;;;;;;;;;;;20.03;55.73;102452.34;7288184;19;151954;-50
2021/11/20 06:05:05;;;;;;;;;;;;;;;20.01;56.29;102443.31;7291379;19;152899;-49
2021/11/20 06:07:32;;;;;;;;;;;;;;;19.99;56.11;102446.38;7289201;19;154547;-48
2021/11/20 06:09:59;;;;;;;;;;;;;;;20.02;56.31;102446.97;7290183;19;151818;-48
2021/11/20 06:12:26;;;;;;;;;;;;;;;20.01;56.39;102446.13;7290259;19;153184;-47
2021/11/20 06:14:53;;;;;;;;;;;;;;;20.01;55.99;102440.53;7289066;19;153938;-47
2021/11/20 06:17:20;;;;;;;;;;;;;;;19.99;56.25;102435.16;7294603;19;151794;-49
2021/11/20 06:19:46;;;;;;;;;;;;;;;20.00;56.43;102441.63;7288505;19;153776;-47
2021/11/20 06:22:13;;;;;;;;;;;;;;;19.98;56.54;102435.47;7290306;19;151985;-48
2021/11/20 06:24:40;;;;;;;;;;;;;;;19.94;56.11;102429.50;7289625;19;152546;-48
2021/11/20 06:27:06;;;;;;;;;;;;;;;19.97;56.11;102425.34;7287870;19;152202;-47
2021/11/20 06:29:33;;;;;;;;;;;;;;;19.94;56.17;102435.13;7290628;19;152062;-48
2021/11/20 06:32:00;;;;;;;;;;;;;;;19.93;56.55;102435.41;7289615;19;152957;-47
2021/11/20 06:34:27;;;;;;;;;;;;;;;19.94;56.26;102426.69;7288330;19;154188;-48
2021/11/20 06:36:54;;;;;;;;;;;;;;;19.92;56.11;102420.53;7290445;19;151811;-48
2021/11/20 06:39:21;;;;;;;;;;;;;;;19.95;56.03;102422.78;7294490;19;152457;-48
2021/11/20 06:41:48;;;;;;;;;;;;;;;19.95;56.29;102430.38;7290261;19;151768;-48
2021/11/20 06:44:15;;;;;;;;;;;;;;;19.91;56.08;102432.88;7288887;19;152595;-48
2021/11/20 06:46:42;;;;;;;;;;;;;;;19.89;56.28;102423.88;7288375;19;154142;-48
2021/11/20 06:49:08;;;;;;;;;;;;;;;19.86;56.08;102424.41;7288072;19;151895;-48
2021/11/20 06:51:35;;;;;;;;;;;;;;;19.88;56.23;102415.72;7289598;19;153761;-48
2021/11/20 06:54:02;;;;;;;;;;;;;;;19.87;56.15;102423.28;7287964;19;153684;-48
2021/11/20 06:56:43;;;;;;;;;;;;;;;19.89;56.56;102423.88;7288982;19;152200;-47
2021/11/20 07:01:44;;;;;;;;;;;;;;;19.88;56.09;102412.94;7292760;19;153189;-50
2021/11/20 07:04:13;;;;;;;;;;;;;;;19.85;56.20;102411.47;7288601;19;151686;-49
2021/11/20 07:06:43;;;;;;;;;;;;;;;19.85;56.42;102419.91;7285442;19;153949;-47
2021/11/20 07:09:11;;;;;;;;;;;;;;;19.85;56.63;102405.88;7286303;19;152208;-48
2021/11/20 07:11:38;;;;;;;;;;;;;;;19.87;56.49;102405.63;7289687;19;152651;-49
2021/11/20 07:14:05;;;;;;;;;;;;;;;19.84;56.30;102404.22;7287127;19;152935;-48
2021/11/20 07:16:32;;;;;;;;;;;;;;;19.81;56.31;102413.13;7288835;19;151773;-49
2021/11/20 07:18:59;;;;;;;;;;;;;;;19.81;56.33;102404.72;7288154;19;154108;-49
2021/11/20 07:21:27;;;;;;;;;;;;;;;19.80;56.35;102405.88;7286217;19;153157;-49
2021/11/20 07:23:56;;;;;;;;;;;;;;;19.81;56.27;102415.09;7293259;19;151778;-49
2021/11/20 07:26:24;;;;;;;;;;;;;;;19.81;56.44;102413.13;7287640;19;154240;-49
2021/11/20 07:28:51;;;;;;;;;;;;;;;19.76;56.65;102415.91;7287965;19;151981;-49
2021/11/20 07:31:38;;;;;;;;;;;;;;;19.78;56.49;102418.44;7288249;19;155743;-48
2021/11/20 07:34:05;;;;;;;;;;;;;;;19.73;56.99;102421.19;7286826;19;153365;-48
2021/11/20 07:36:35;;;;;;;;;;;;;;;19.79;57.22;102426.59;7286595;19;151910;-49
2021/11/20 07:39:05;;;;;;;;;;;;;;;19.84;57.07;102423.84;7288713;19;153375;-49
2021/11/20 07:41:32;;;;;;;;;;;;;;;19.83;57.73;102413.72;7284572;19;153984;-49
2021/11/20 07:43:58;;;;;;;;;;;;;;;19.86;57.83;102412.34;7293288;19;151962;-49
2021/11/20 07:46:25;;;;;;;;;;;;;;;19.85;58.34;102405.06;7285785;19;153350;-49
2021/11/20 07:48:52;;;;;;;;;;;;;;;19.88;58.53;102405.38;7287183;19;151966;-49
2021/11/20 07:51:19;;;;;;;;;;;;;;;19.90;58.49;102403.13;7288273;19;152677;-48
2021/11/20 07:53:46;;;;;;;;;;;;;;;19.95;58.89;102402.31;7286743;19;153646;-48
2021/11/20 07:56:14;;;;;;;;;;;;;;;19.99;59.32;102401.50;7287776;19;151623;-48
2021/11/20 07:58:41;;;;;;;;;;;;;;;20.04;59.70;102402.66;7287502;19;152722;-49
2021/11/20 08:01:09;;;;;;;;;;;;;;;20.10;59.45;102387.56;7284409;19;152615;-49
2021/11/20 08:03:36;;;;;;;;;;;;;;;20.15;59.45;102385.63;7286087;19;151904;-48
2021/11/20 08:06:03;;;;;;;;;;;;;;;20.20;59.13;102388.47;7293775;19;152407;-48
2021/11/20 08:08:31;;;;;;;;;;;;;;;20.25;59.10;102391.31;7286978;19;151911;-49
2021/11/20 08:10:58;;;;;;;;;;;;;;;20.31;58.95;102392.19;7287687;19;153541;-49
2021/11/20 08:13:25;;;;;;;;;;;;;;;20.36;58.69;102378.19;7285691;19;153321;-49
2021/11/20 08:15:52;;;;;;;;;;;;;;;20.42;58.72;102377.13;7287064;19;151806;-48
2021/11/20 08:18:19;;;;;;;;;;;;;;;20.47;59.01;102388.38;7286035;19;152433;-48
2021/11/20 08:20:46;;;;;;;;;;;;;;;20.51;58.55;102374.63;7283435;19;153240;-49
2021/11/20 08:23:13;;;;;;;;;;;;;;;20.56;59.18;102381.13;7283249;19;152764;-49
2021/11/20 08:25:44;;;;;;;;;;;;;;;20.64;58.43;102379.72;7286879;19;153312;-48
2021/11/20 08:28:13;;;;;;;;;;;;;;;20.70;58.24;102385.13;7292516;19;154293;-49
2021/11/20 08:30:40;;;;;;;;;;;;;;;20.73;58.58;102369.66;7286884;19;153326;-49
2021/11/20 08:33:07;;;;;;;;;;;;;;;20.79;58.26;102368.56;7284922;19;153546;-49
2021/11/20 08:35:34;;;;;;;;;;;;;;;20.82;58.42;102363.25;7286718;19;151943;-48
2021/11/20 08:38:01;;;;;;;;;;;;;;;20.88;58.08;102363.25;7286231;19;153376;-49
2021/11/20 08:40:29;;;;;;;;;;;;;;;20.94;57.90;102356.53;7285340;19;153982;-50
2021/11/20 08:42:56;;;;;;;;;;;;;;;21.01;58.29;102357.09;7286948;19;152039;-49
2021/11/20 08:45:24;;;;;;;;;;;;;;;21.04;57.96;102354.59;7286949;19;151908;-49
2021/11/20 08:47:53;;;;;;;;;;;;;;;21.10;57.22;102345.03;7283034;19;154234;-49
2021/11/20 08:50:23;;;;;;;;;;;;;;;21.14;57.25;102348.16;7294739;19;151834;-49
2021/11/20 08:52:49;;;;;;;;;;;;;;;21.18;57.09;102350.16;7285003;19;153187;-48
2021/11/20 08:55:21;;;;;;;;;;;;;;;21.24;57.20;102343.41;7286251;19;151682;-49
2021/11/20 08:57:49;;;;;;;;;;;;;;;21.29;57.29;102342.59;7285369;19;153204;-49
2021/11/20 09:00:22;;;;;;;;;;;;;;;21.34;56.95;102339.78;7284596;19;155652;-49
2021/11/20 09:02:52;;;;;;;;;;;;;;;21.39;56.40;102336.97;7282515;19;152219;-50
2021/11/20 09:05:41;;;;;;;;;;;;;;;21.46;56.35;102333.84;7286502;19;152942;-49
2021/11/20 09:08:15;;;;;;;;;;;;;;;21.49;56.41;102331.31;7284318;19;152162;-49
2021/11/20 09:11:03;;;;;;;;;;;;;;;21.52;56.28;102336.41;7284030;19;152052;-49
2021/11/20 09:13:34;;;;;;;;;;;;;;;21.56;56.54;102334.72;7291204;19;153297;-49
2021/11/20 09:16:14;;;;;;;;;;;;;;;21.62;55.86;102332.75;7285717;19;151873;-49
2021/11/20 09:18:41;;;;;;;;;;;;;;;21.64;56.00;102333.28;7285463;19;153010;-49
2021/11/20 09:21:09;;;;;;;;;;;;;;;21.67;55.79;102324.28;7283359;19;153275;-49
2021/11/20 09:23:37;;;;;;;;;;;;;;;21.70;56.00;102320.91;7284885;19;151864;-49
2021/11/20 09:26:12;;;;;;;;;;;;;;;21.76;55.23;102325.41;7284231;19;152912;-50
2021/11/20 09:28:56;;;;;;;;;;;;;;;21.77;55.54;102324.28;7284120;19;153310;-49
2021/11/20 09:31:24;;;;;;;;;;;;;;;21.80;55.46;102328.50;7285529;19;152009;-49
2021/11/20 09:33:50;;;;;;;;;;;;;;;21.81;55.21;102319.75;7284285;19;153381;-49
2021/11/20 09:36:17;;;;;;;;;;;;;;;21.84;55.05;102318.38;7288416;19;151844;-49
2021/11/20 09:38:44;;;;;;;;;;;;;;;21.86;54.86;102327.34;7284734;19;152665;-49
2021/11/20 09:41:13;;;;;;;;;;;;;;;21.86;55.15;102324.53;7282835;19;154199;-49
2021/11/20 09:43:42;;;;;;;;;;;;;;;21.87;54.58;102321.44;7284167;19;151611;-49
2021/11/20 09:46:12;;;;;;;;;;;;;;;21.87;54.89;102317.78;7283897;19;152090;-49
2021/11/20 09:48:41;;;;;;;;;;;;;;;21.87;55.00;102320.59;7282087;19;154145;-48
2021/11/20 09:51:21;;;;;;;;;;;;;;;21.88;54.47;102322.31;7283536;19;151619;-50
2021/11/20 09:53:48;;;;;;;;;;;;;;;21.89;54.50;102315.56;7281712;19;153251;-50
2021/11/20 09:56:22;;;;;;;;;;;;;;;21.89;54.52;102315.56;7290731;19;153132;-49
2021/11/20 09:58:54;;;;;;;;;;;;;;;21.87;54.90;102321.44;7284385;19;153009;-49
2021/11/20 10:01:46;;;;;;;;;;;;;;;21.89;54.37;102326.81;7281350;19;153968;-49
2021/11/20 10:04:28;;;;;;;;;;;;;;;21.86;52.84;102325.38;7283345;19;151842;-48
2021/11/20 10:07:27;;;;;;;;;;;;;;;21.74;51.10;102320.06;7282895;19;153311;-49
2021/11/20 10:10:05;;;;;;;;;;;;;;;21.59;50.07;102314.44;7280331;19;153366;-49
2021/11/20 10:12:35;;;;;;;;;;;;;;;21.66;50.32;102317.00;7281620;19;152084;-48
2021/11/20 10:15:05;;;;;;;;;;;;;;;21.62;50.74;102322.31;7283939;19;153150;-49
2021/11/20 10:17:35;;;;;;;;;;;;;;;21.62;50.79;102305.44;7282189;19;153045;-48
2021/11/20 10:20:24;;;;;;;;;;;;;;;21.60;51.04;102310.53;7291142;19;152030;-49
2021/11/20 10:22:57;;;;;;;;;;;;;;;21.60;51.26;102306.84;7275704;19;153255;-48
2021/11/20 10:25:42;;;;;;;;;;;;;;;21.54;51.09;102300.38;7284386;19;151771;-48
2021/11/20 10:28:16;;;;;;;;;;;;;;;21.60;50.80;102302.09;7282378;19;152572;-48
2021/11/20 10:31:01;;;;;;;;;;;;;;;21.62;51.10;102290.56;7281600;19;154085;-48
2021/11/20 10:33:32;;;;;;;;;;;;;;;21.62;51.56;102293.38;7281063;19;151997;-49
2021/11/20 10:36:05;;;;;;;;;;;;;;;21.61;51.33;102289.72;7283082;19;152087;-49
2021/11/20 10:38:55;;;;;;;;;;;;;;;21.59;51.44;102286.31;7281378;19;152862;-48
2021/11/20 10:41:26;;;;;;;;;;;;;;;21.60;51.85;102288.03;7281564;19;152086;-50
2021/11/20 10:44:09;;;;;;;;;;;;;;;21.62;51.57;102279.31;7288554;19;153265;-49
2021/11/20 10:46:48;;;;;;;;;;;;;;;21.54;52.19;102272.25;7285117;19;151898;-48
2021/11/20 10:49:18;;;;;;;;;;;;;;;21.58;51.19;102267.75;7289103;19;152616;-49
2021/11/20 10:51:51;;;;;;;;;;;;;;;21.58;51.07;102264.94;7288460;19;153285;-50
2021/11/20 10:54:20;;;;;;;;;;;;;;;21.60;51.40;102262.69;7289149;19;151506;-48
2021/11/20 10:57:06;;;;;;;;;;;;;;;21.59;50.73;102265.78;7289038;19;153481;-49
2021/11/20 10:59:35;;;;;;;;;;;;;;;21.60;50.69;102250.59;7287767;19;153806;-48
2021/11/20 11:02:27;;;;;;;;;;;;;;;21.61;51.25;102255.97;7286683;19;151650;-48
2021/11/20 11:04:54;;;;;;;;;;;;;;;21.63;50.75;102250.88;7289965;19;153082;-49
2021/11/20 11:07:21;;;;;;;;;;;;;;;21.69;50.83;102251.72;7293784;19;154090;-48
2021/11/20 11:10:01;;;;;;;;;;;;;;;21.71;50.75;102238.22;7288724;19;152591;-49
2021/11/20 11:12:37;;;;;;;;;;;;;;;21.76;51.09;102240.19;7286929;19;152999;-49
2021/11/20 11:15:22;;;;;;;;;;;;;;;21.77;50.78;102225.81;7288264;19;151788;-49
2021/11/20 11:18:04;;;;;;;;;;;;;;;21.80;50.77;102225.25;7287096;19;153153;-48
2021/11/20 11:20:57;;;;;;;;;;;;;;;21.83;51.24;102219.03;7287772;19;153686;-48
2021/11/20 11:23:28;;;;;;;;;;;;;;;21.86;50.85;102209.19;7287842;19;151880;-49
2021/11/20 11:25:57;;;;;;;;;;;;;;;21.88;51.05;102201.31;7288462;19;151837;-48
2021/11/20 11:28:43;;;;;;;;;;;;;;;21.91;50.76;102207.19;7286737;19;154023;-49
2021/11/20 11:31:26;;;;;;;;;;;;;;;21.89;49.61;102212.28;7296399;19;151899;-49
2021/11/20 11:34:15;;;;;;;;;;;;;;;21.33;44.64;102200.31;7286877;19;153899;-49
2021/11/20 11:37:01;;;;;;;;;;;;;;;21.34;44.67;102199.19;7288507;19;151894;-48
2021/11/20 11:39:35;;;;;;;;;;;;;;;21.53;46.47;102191.00;7288836;19;153084;-49
2021/11/20 11:42:01;;;;;;;;;;;;;;;21.58;46.90;102193.78;7286812;19;152950;-49
2021/11/20 11:44:29;;;;;;;;;;;;;;;21.62;46.92;102189.31;7287087;19;151817;-49
2021/11/20 11:46:57;;;;;;;;;;;;;;;21.64;47.44;102187.88;7286067;19;153362;-49
2021/11/20 11:49:33;;;;;;;;;;;;;;;21.71;49.56;102179.97;7286335;19;153245;-52
2021/11/20 11:52:20;;;;;;;;;;;;;;;21.72;49.38;102189.25;7295169;19;152093;-48
2021/11/20 11:54:49;;;;;;;;;;;;;;;21.72;49.62;102175.19;7286239;19;153968;-48
2021/11/20 11:57:16;;;;;;;;;;;;;;;21.70;49.63;102172.69;7284539;19;152195;-48
2021/11/20 11:59:58;;;;;;;;;;;;;;;21.70;50.01;102160.56;7287197;19;152788;-49
2021/11/20 12:02:31;;;;;;;;;;;;;;;21.67;50.02;102156.34;7284771;19;153199;-48
2021/11/20 12:05:19;;;;;;;;;;;;;;;21.70;49.40;102154.94;7287657;19;151626;-48
2021/11/20 12:07:46;;;;;;;;;;;;;;;21.68;49.65;102146.78;7287006;19;152619;-49
2021/11/20 12:10:12;;;;;;;;;;;;;;;21.66;49.79;102140.63;7286300;19;153947;-48
2021/11/20 12:12:51;;;;;;;;;;;;;;;21.65;49.44;102133.31;7287347;19;152034;-49
2021/11/20 12:15:17;;;;;;;;;;;;;;;21.62;49.73;102128.25;7293941;19;152631;-49
2021/11/20 12:17:47;;;;;;;;;;;;;;;21.63;49.74;102115.88;7286674;19;152588;-49
2021/11/20 12:20:53;;;;;;;;;;;;;;;21.63;49.39;102115.03;7287540;19;153750;-49
2021/11/20 12:23:47;;;;;;;;;;;;;;;21.60;49.76;102112.78;7278424;19;154140;-49
2021/11/20 12:26:32;;;;;;;;;;;;;;;21.61;49.49;102114.47;7287459;19;151647;-48
2021/11/20 12:28:59;;;;;;;;;;;;;;;21.59;49.90;102109.13;7286445;19;153314;-49
2021/11/20 12:31:26;;;;;;;;;;;;;;;21.58;49.84;102104.63;7286377;19;153222;-49
2021/11/20 12:34:00;;;;;;;;;;;;;;;21.61;49.97;102100.41;7283817;19;152133;-49
2021/11/20 12:36:32;;;;;;;;;;;;;;;21.60;49.69;102102.38;7287128;19;152632;-48
2021/11/20 12:38:59;;;;;;;;;;;;;;;21.62;49.52;102088.03;7291493;19;153955;-48
2021/11/20 12:41:48;;;;;;;;;;;;;;;21.62;49.68;102085.22;7286962;19;151958;-49
2021/11/20 12:44:51;;;;;;;;;;;;;;;21.62;49.40;102088.84;7285193;19;154444;-48
2021/11/20 12:47:20;;;;;;;;;;;;;;;21.60;49.79;102079.03;7281439;19;151902;-49